Time;durP1;ratioP1;P1;durP2;ratioP2;P2;SDS_P1;SDS_P2;PMS_P1;PMS_P2;Temp;Humidity;BMP_temperature;BMP_pressure;BME280_temperature;BME280_humidity;BME280_pressure;Samples;Min_cycle;Max_cycle;Signal;HPM_P1;HPM_P2
2021/11/10 00:01:55;;;;;;;8.40;3.40;;;5.70;1.00;;;;;;5031436;28;20745;-60
2021/11/10 00:04:22;;;;;;;9.60;4.10;;;5.70;1.00;;;;;;5031578;28;20229;-61
2021/11/10 00:06:52;;;;;;;6.20;3.40;;;5.70;1.00;;;;;;5031063;28;20210;-62
2021/11/10 00:09:19;;;;;;;6.77;3.73;;;5.70;1.00;;;;;;5033398;28;20205;-61
2021/11/10 00:11:46;;;;;;;9.33;3.50;;;5.60;1.00;;;;;;5034938;28;20672;-61
2021/11/10 00:14:13;;;;;;;7.63;3.50;;;5.60;1.00;;;;;;5035199;28;20226;-61
2021/11/10 00:16:40;;;;;;;6.43;3.60;;;5.60;1.00;;;;;;5034846;28;20210;-61
2021/11/10 00:19:07;;;;;;;6.97;4.47;;;5.60;1.00;;;;;;5035146;28;20577;-61
2021/11/10 00:21:34;;;;;;;9.73;3.80;;;5.50;1.00;;;;;;5034949;28;20202;-61
2021/11/10 00:24:03;;;;;;;5.17;3.23;;;5.50;1.00;;;;;;5034882;28;20256;-61
2021/11/10 00:26:29;;;;;;;6.20;3.67;;;5.40;1.00;;;;;;5034385;28;20258;-61
2021/11/10 00:28:56;;;;;;;8.07;4.30;;;5.30;1.00;;;;;;5034723;28;20678;-61
2021/11/10 00:31:23;;;;;;;11.67;3.93;;;5.30;1.00;;;;;;5034842;28;20226;-61
2021/11/10 00:33:50;;;;;;;8.13;3.33;;;5.30;1.00;;;;;;5034740;28;20229;-61
2021/11/10 00:36:18;;;;;;;7.13;3.73;;;5.30;1.00;;;;;;5034342;28;20202;-60
2021/11/10 00:38:45;;;;;;;5.80;3.53;;;5.30;1.00;;;;;;5034545;28;20264;-61
2021/11/10 00:41:13;;;;;;;6.27;3.60;;;5.30;1.00;;;;;;5034431;28;20267;-61
2021/11/10 00:43:40;;;;;;;8.37;3.50;;;5.20;1.00;;;;;;5034649;28;20222;-61
2021/11/10 00:46:07;;;;;;;6.50;3.80;;;5.20;1.00;;;;;;5034169;28;20209;-61
2021/11/10 00:48:33;;;;;;;8.27;3.13;;;5.10;1.00;;;;;;5034642;28;20213;-61
2021/11/10 00:51:01;;;;;;;6.17;3.50;;;5.10;1.00;;;;;;5034404;28;20284;-59
2021/11/10 00:53:28;;;;;;;6.20;4.07;;;5.10;1.00;;;;;;5034142;28;20229;-60
2021/11/10 00:55:54;;;;;;;5.27;3.80;;;5.00;1.00;;;;;;5034186;28;20210;-59
2021/11/10 00:58:22;;;;;;;7.57;3.30;;;5.00;1.00;;;;;;5034315;28;20213;-60
2021/11/10 01:00:50;;;;;;;9.83;3.60;;;4.90;1.00;;;;;;5034211;28;20263;-59
2021/11/10 01:03:19;;;;;;;8.13;3.90;;;4.90;1.00;;;;;;5034177;28;20283;-60
2021/11/10 01:05:45;;;;;;;7.03;4.30;;;4.90;1.00;;;;;;5033943;28;20266;-59
2021/11/10 01:08:12;;;;;;;4.93;3.93;;;4.90;1.00;;;;;;5033896;28;20275;-57
2021/11/10 01:10:40;;;;;;;6.13;4.00;;;4.90;1.00;;;;;;5034397;28;20286;-60
2021/11/10 01:13:07;;;;;;;7.87;4.10;;;4.90;1.00;;;;;;5034101;28;20227;-61
2021/11/10 01:15:35;;;;;;;10.87;3.87;;;4.90;1.00;;;;;;5033460;28;20216;-61
2021/11/10 01:18:03;;;;;;;8.37;4.20;;;4.90;1.00;;;;;;5033878;28;20207;-60
2021/11/10 01:20:30;;;;;;;10.27;4.17;;;4.90;1.00;;;;;;5033487;28;20206;-60
2021/11/10 01:22:57;;;;;;;8.50;4.53;;;4.90;1.00;;;;;;5033378;28;20234;-61
2021/11/10 01:25:23;;;;;;;6.63;4.03;;;4.90;1.00;;;;;;5033525;28;20677;-61
2021/11/10 01:27:50;;;;;;;7.57;4.17;;;4.80;1.00;;;;;;5033768;28;20287;-61
2021/11/10 01:30:17;;;;;;;12.30;4.23;;;4.80;1.00;;;;;;5033617;28;20228;-61
2021/11/10 01:32:45;;;;;;;5.50;3.70;;;4.80;1.00;;;;;;5033345;28;20240;-61
2021/11/10 01:35:12;;;;;;;7.27;3.90;;;4.80;1.00;;;;;;5033098;28;20211;-61
2021/11/10 01:37:39;;;;;;;6.03;3.40;;;4.80;1.00;;;;;;5033402;28;20213;-61
2021/11/10 01:40:07;;;;;;;6.70;3.87;;;4.80;1.00;;;;;;5033592;28;20213;-61
2021/11/10 01:42:36;;;;;;;8.80;3.67;;;4.80;1.00;;;;;;5033597;28;20266;-62
2021/11/10 01:45:03;;;;;;;5.47;3.57;;;4.80;1.00;;;;;;5033139;28;20208;-62
2021/11/10 01:47:30;;;;;;;10.07;3.67;;;4.80;1.00;;;;;;5033305;28;20567;-61
2021/11/10 01:49:58;;;;;;;5.47;3.60;;;4.80;1.00;;;;;;5033228;28;20260;-61
2021/11/10 01:52:25;;;;;;;7.83;4.07;;;4.70;1.00;;;;;;5033333;28;20242;-61
2021/11/10 01:54:52;;;;;;;7.20;4.07;;;4.80;1.00;;;;;;5033050;28;20212;-62
2021/11/10 01:57:19;;;;;;;8.90;4.10;;;4.70;1.00;;;;;;5033346;28;20291;-62
2021/11/10 01:59:47;;;;;;;7.73;4.10;;;4.70;1.00;;;;;;5033182;28;20219;-63
2021/11/10 02:02:21;;;;;;;10.97;3.73;;;4.70;1.00;;;;;;5032826;28;20340;-62
2021/11/10 02:04:50;;;;;;;7.93;3.77;;;4.70;1.00;;;;;;5032887;28;20247;-61
2021/11/10 02:07:19;;;;;;;7.43;3.90;;;4.70;1.00;;;;;;5033095;28;20286;-62
2021/11/10 02:09:47;;;;;;;7.93;3.80;;;4.70;1.00;;;;;;5032936;28;20663;-62
2021/11/10 02:12:14;;;;;;;6.33;3.63;;;4.70;1.00;;;;;;5032987;28;20207;-61
2021/11/10 02:14:41;;;;;;;7.90;3.80;;;4.70;1.00;;;;;;5032249;28;20710;-61
2021/11/10 02:17:12;;;;;;;7.93;4.00;;;4.60;1.00;;;;;;5032627;28;20208;-62
2021/11/10 02:19:39;;;;;;;6.17;4.10;;;4.60;1.00;;;;;;5032934;28;20210;-61
2021/11/10 02:22:07;;;;;;;7.13;3.67;;;4.60;1.00;;;;;;5032826;28;20284;-61
2021/11/10 02:24:37;;;;;;;7.23;3.40;;;4.60;1.00;;;;;;5032293;28;20236;-61
2021/11/10 02:27:14;;;;;;;7.90;4.33;;;4.50;1.00;;;;;;5032508;28;20213;-62
2021/11/10 02:29:40;;;;;;;6.57;3.57;;;4.50;1.00;;;;;;5032821;28;20237;-62
2021/11/10 02:32:10;;;;;;;5.83;3.57;;;4.50;1.00;;;;;;5031743;28;20263;-61
2021/11/10 02:34:37;;;;;;;5.90;3.77;;;4.50;1.00;;;;;;5032351;28;20232;-62
2021/11/10 02:37:04;;;;;;;9.70;4.10;;;4.50;1.00;;;;;;5032522;28;20206;-61
2021/11/10 02:39:33;;;;;;;7.23;3.70;;;4.50;1.00;;;;;;5032419;28;20558;-60
2021/11/10 02:42:00;;;;;;;8.10;4.07;;;4.50;1.00;;;;;;5032252;28;20294;-61
2021/11/10 02:44:27;;;;;;;7.73;3.80;;;4.50;1.00;;;;;;5032357;28;20236;-61
2021/11/10 02:46:53;;;;;;;8.13;4.47;;;4.50;1.00;;;;;;5032040;28;20262;-62
2021/11/10 02:49:21;;;;;;;7.57;3.60;;;4.40;1.00;;;;;;5032269;28;20623;-60
2021/11/10 02:51:56;;;;;;;8.83;4.23;;;4.40;1.00;;;;;;5032197;28;20275;-61
2021/11/10 02:54:24;;;;;;;10.47;4.30;;;4.40;1.00;;;;;;5031807;28;20952;-62
2021/11/10 02:56:52;;;;;;;7.20;3.63;;;4.40;1.00;;;;;;5032043;28;20207;-61
2021/11/10 02:59:19;;;;;;;8.13;4.10;;;4.30;1.00;;;;;;5032164;28;20228;-61
2021/11/10 03:01:46;;;;;;;5.77;4.37;;;4.30;1.00;;;;;;5032017;28;20210;-60
2021/11/10 03:04:20;;;;;;;9.10;4.50;;;4.30;1.00;;;;;;5032100;28;20305;-60
2021/11/10 03:06:47;;;;;;;10.37;4.73;;;4.30;1.00;;;;;;5031538;28;20247;-61
2021/11/10 03:09:17;;;;;;;8.03;4.00;;;4.20;1.00;;;;;;5032204;28;20266;-60
2021/11/10 03:11:44;;;;;;;9.17;4.10;;;4.20;1.00;;;;;;5032172;28;20317;-61
2021/11/10 03:14:12;;;;;;;10.40;4.23;;;4.20;1.00;;;;;;5031899;28;20233;-61
2021/11/10 03:16:39;;;;;;;8.73;4.57;;;4.20;1.00;;;;;;5031611;28;20212;-61
2021/11/10 03:19:06;;;;;;;7.83;4.37;;;4.20;1.00;;;;;;5031742;28;20261;-60
2021/11/10 03:21:33;;;;;;;4.47;3.90;;;4.20;1.00;;;;;;5031847;28;20664;-61
2021/11/10 03:24:00;;;;;;;7.77;4.10;;;4.30;1.00;;;;;;5031838;28;20292;-61
2021/11/10 03:26:27;;;;;;;10.50;5.00;;;4.30;1.00;;;;;;5031644;28;20206;-61
2021/11/10 03:28:53;;;;;;;8.53;4.03;;;4.30;1.00;;;;;;5031359;28;20206;-61
2021/11/10 03:31:21;;;;;;;6.47;3.87;;;4.30;1.00;;;;;;5031779;28;20223;-61
2021/11/10 03:33:48;;;;;;;7.40;3.90;;;4.30;1.00;;;;;;5031666;28;20284;-61
2021/11/10 03:36:15;;;;;;;5.10;3.83;;;4.30;1.00;;;;;;5031312;28;20214;-61
2021/11/10 03:38:42;;;;;;;7.27;3.50;;;4.30;1.00;;;;;;5031864;28;20211;-61
2021/11/10 03:41:09;;;;;;;12.13;4.20;;;4.30;1.00;;;;;;5031689;28;20207;-61
2021/11/10 03:43:36;;;;;;;6.80;3.90;;;4.30;1.00;;;;;;5033461;28;20230;-61
2021/11/10 03:46:03;;;;;;;7.97;4.40;;;4.30;1.00;;;;;;5035190;28;20206;-61
2021/11/10 03:48:31;;;;;;;8.70;4.50;;;4.30;1.00;;;;;;5035706;28;20279;-62
2021/11/10 03:50:58;;;;;;;9.10;4.23;;;4.30;1.00;;;;;;5035721;28;20637;-62
2021/11/10 03:53:25;;;;;;;8.43;3.70;;;4.40;1.00;;;;;;5035295;28;20273;-60
2021/11/10 03:55:51;;;;;;;5.90;3.70;;;4.40;1.00;;;;;;5035425;28;20207;-61
2021/11/10 03:58:18;;;;;;;6.53;4.10;;;4.50;1.00;;;;;;5035415;28;20274;-61
2021/11/10 04:00:45;;;;;;;9.30;4.30;;;4.50;1.00;;;;;;5035372;28;20206;-61
2021/11/10 04:03:12;;;;;;;8.37;4.03;;;4.50;1.00;;;;;;5035119;28;20231;-61
2021/11/10 04:05:42;;;;;;;8.27;3.90;;;4.50;1.00;;;;;;5035175;28;20206;-61
2021/11/10 04:08:09;;;;;;;6.60;4.23;;;4.60;1.00;;;;;;5035367;28;20212;-61
2021/11/10 04:10:36;;;;;;;5.83;3.80;;;4.60;1.00;;;;;;5035233;28;20297;-61
2021/11/10 04:13:03;;;;;;;6.50;3.70;;;4.60;1.00;;;;;;5035033;28;20724;-60
2021/11/10 04:15:30;;;;;;;8.07;4.00;;;4.70;1.00;;;;;;5034691;28;20646;-61
2021/11/10 04:17:56;;;;;;;6.40;3.27;;;4.80;1.00;;;;;;5035261;28;20205;-60
2021/11/10 04:20:23;;;;;;;7.47;3.40;;;4.90;1.00;;;;;;5035082;28;20207;-61
2021/11/10 04:22:51;;;;;;;6.93;3.80;;;4.90;1.00;;;;;;5034887;28;20568;-62
2021/11/10 04:25:18;;;;;;;6.00;3.23;;;5.00;1.00;;;;;;5034658;28;20206;-60
2021/11/10 04:27:44;;;;;;;6.00;3.90;;;5.10;1.00;;;;;;5034708;28;20337;-61
2021/11/10 04:30:12;;;;;;;5.53;3.53;;;5.10;1.00;;;;;;5034503;28;20264;-62
2021/11/10 04:32:39;;;;;;;9.77;4.10;;;5.10;1.00;;;;;;5034666;28;20228;-61
2021/11/10 04:35:07;;;;;;;5.73;3.97;;;5.20;1.00;;;;;;5034488;28;20606;-61
2021/11/10 04:37:33;;;;;;;6.30;4.07;;;5.20;1.00;;;;;;5034835;28;20211;-62
2021/11/10 04:40:01;;;;;;;6.37;4.30;;;5.20;1.00;;;;;;5034934;28;20208;-60
2021/11/10 04:42:28;;;;;;;7.07;3.83;;;5.20;1.00;;;;;;5034649;28;20207;-60
2021/11/10 04:44:59;;;;;;;8.57;3.97;;;5.20;1.00;;;;;;5034034;28;20215;-61
2021/11/10 04:47:26;;;;;;;7.20;3.80;;;5.10;1.00;;;;;;5034960;28;20213;-61
2021/11/10 04:49:53;;;;;;;6.00;3.77;;;5.10;1.00;;;;;;5034532;28;20212;-62
2021/11/10 04:52:19;;;;;;;6.27;3.50;;;5.10;1.00;;;;;;5034380;28;20226;-61
2021/11/10 04:54:46;;;;;;;9.00;5.00;;;5.10;1.00;;;;;;5033295;28;20231;-62
2021/11/10 04:57:14;;;;;;;7.17;4.23;;;5.10;1.00;;;;;;5033828;28;20212;-61
2021/11/10 04:59:41;;;;;;;5.17;3.50;;;5.10;1.00;;;;;;5034406;28;20694;-60
2021/11/10 05:02:26;;;;;;;7.33;4.23;;;5.10;1.00;;;;;;5034398;28;20627;-60
2021/11/10 05:04:54;;;;;;;6.77;3.70;;;5.20;1.00;;;;;;5034160;28;20681;-61
2021/11/10 05:07:21;;;;;;;6.17;3.97;;;5.10;1.00;;;;;;5034289;28;20241;-61
2021/11/10 05:09:49;;;;;;;6.93;4.00;;;5.10;1.00;;;;;;5034229;28;20675;-63
2021/11/10 05:12:17;;;;;;;7.03;3.73;;;5.00;1.00;;;;;;5034153;28;20230;-60
2021/11/10 05:14:45;;;;;;;7.20;3.90;;;5.00;1.00;;;;;;5033806;28;20284;-61
2021/11/10 05:17:12;;;;;;;9.50;4.03;;;5.00;1.00;;;;;;5034229;28;20580;-61
2021/11/10 05:19:38;;;;;;;6.03;3.73;;;4.80;1.00;;;;;;5034022;28;20211;-61
2021/11/10 05:22:06;;;;;;;11.40;4.40;;;4.80;1.00;;;;;;5033909;28;20251;-60
2021/11/10 05:24:32;;;;;;;10.00;4.73;;;4.70;1.00;;;;;;5033298;28;20240;-61
2021/11/10 05:26:59;;;;;;;6.47;3.83;;;4.60;1.00;;;;;;5029078;28;20203;-61
2021/11/10 05:29:27;;;;;;;7.37;4.63;;;4.60;1.00;;;;;;5035183;28;20264;-58
2021/11/10 05:31:54;;;;;;;7.70;4.43;;;4.60;1.00;;;;;;5036342;28;20770;-57
2021/11/10 05:34:21;;;;;;;10.07;3.70;;;4.60;1.00;;;;;;5033076;28;20236;-58
2021/11/10 05:36:47;;;;;;;8.03;3.87;;;4.60;1.00;;;;;;5032963;28;20703;-57
2021/11/10 05:39:16;;;;;;;7.33;4.23;;;4.70;1.00;;;;;;5033904;28;20577;-59
2021/11/10 05:41:44;;;;;;;10.10;4.37;;;4.70;1.00;;;;;;5033293;28;20663;-57
2021/11/10 05:44:11;;;;;;;9.90;4.57;;;4.60;1.00;;;;;;5033251;28;20235;-56
2021/11/10 05:46:39;;;;;;;9.27;4.57;;;4.40;1.00;;;;;;5032655;28;20222;-60
2021/11/10 05:49:06;;;;;;;8.47;4.77;;;4.30;1.00;;;;;;5033213;28;20206;-59
2021/11/10 05:51:32;;;;;;;9.20;4.90;;;4.30;1.00;;;;;;5032709;28;20223;-58
2021/11/10 05:53:59;;;;;;;7.63;4.57;;;4.20;1.00;;;;;;5032944;28;20742;-59
2021/11/10 05:56:27;;;;;;;8.73;5.07;;;4.20;1.00;;;;;;5032871;28;20883;-57
2021/11/10 05:58:57;;;;;;;8.00;5.27;;;4.10;1.00;;;;;;5033073;28;20561;-59
2021/11/10 06:01:25;;;;;;;10.30;5.07;;;4.10;1.00;;;;;;5032925;28;20452;-57
2021/11/10 06:03:54;;;;;;;8.20;4.60;;;4.10;1.00;;;;;;5032802;28;20231;-57
2021/11/10 06:06:20;;;;;;;10.23;5.17;;;4.20;1.00;;;;;;5032099;28;20211;-57
2021/11/10 06:08:47;;;;;;;8.93;5.77;;;4.30;1.00;;;;;;5032767;28;20206;-57
2021/11/10 06:11:14;;;;;;;10.03;5.00;;;4.30;1.00;;;;;;5032600;28;20210;-55
2021/11/10 06:13:41;;;;;;;9.50;5.30;;;4.30;1.00;;;;;;5032841;28;20231;-58
2021/11/10 06:16:08;;;;;;;11.63;4.90;;;4.30;1.00;;;;;;5032237;28;20515;-59
2021/11/10 06:18:35;;;;;;;8.27;4.57;;;4.30;1.00;;;;;;5032379;28;20284;-59
2021/11/10 06:21:05;;;;;;;9.30;4.97;;;4.20;1.00;;;;;;5032555;28;20626;-60
2021/11/10 06:23:32;;;;;;;10.33;4.80;;;4.20;1.00;;;;;;5032462;28;20230;-58
2021/11/10 06:25:59;;;;;;;11.53;5.27;;;4.10;1.00;;;;;;5032131;28;20206;-58
2021/11/10 06:28:26;;;;;;;12.43;5.33;;;4.00;1.00;;;;;;5032390;28;20769;-56
2021/11/10 06:30:52;;;;;;;7.83;5.13;;;4.00;1.00;;;;;;5032166;28;20207;-59
2021/11/10 06:33:19;;;;;;;7.60;4.77;;;4.00;1.00;;;;;;5032020;28;20234;-60
2021/11/10 06:35:46;;;;;;;10.97;5.67;;;4.10;1.00;;;;;;5032205;28;20206;-58
2021/11/10 06:38:14;;;;;;;10.90;6.07;;;4.10;1.00;;;;;;5031985;28;20450;-59
2021/11/10 06:40:41;;;;;;;11.20;6.03;;;4.00;1.00;;;;;;5032380;28;20456;-59
2021/11/10 06:43:07;;;;;;;9.87;5.03;;;4.10;1.00;;;;;;5032146;28;20338;-58
2021/11/10 06:45:34;;;;;;;8.73;5.10;;;4.10;1.00;;;;;;5031727;28;20220;-57
2021/11/10 06:48:01;;;;;;;9.07;5.43;;;4.20;1.00;;;;;;5029036;28;20210;-61
2021/11/10 06:50:27;;;;;;;9.13;5.17;;;4.20;1.00;;;;;;5028433;28;20284;-63
2021/11/10 06:52:54;;;;;;;6.60;5.00;;;4.20;1.00;;;;;;5031559;28;20294;-58
2021/11/10 06:55:22;;;;;;;20.57;5.43;;;4.20;1.00;;;;;;5031283;28;20215;-63
2021/11/10 06:57:49;;;;;;;8.07;5.97;;;4.20;1.00;;;;;;5031648;28;20207;-63
2021/11/10 07:00:17;;;;;;;8.90;5.67;;;4.20;1.00;;;;;;5030782;28;20268;-61
2021/11/10 07:02:44;;;;;;;10.73;5.57;;;4.20;1.00;;;;;;5031827;28;20202;-61
2021/11/10 07:05:11;;;;;;;9.33;5.70;;;4.20;1.00;;;;;;5031336;28;20211;-61
2021/11/10 07:07:38;;;;;;;9.63;5.33;;;4.20;1.00;;;;;;5031690;28;20245;-62
2021/11/10 07:10:05;;;;;;;9.93;5.70;;;4.20;1.00;;;;;;5031335;28;20632;-61
2021/11/10 07:12:33;;;;;;;13.57;6.43;;;4.20;1.00;;;;;;5031463;28;20609;-60
2021/11/10 07:15:00;;;;;;;11.60;6.13;;;4.20;1.00;;;;;;5031273;28;20628;-60
2021/11/10 07:17:27;;;;;;;13.90;5.07;;;4.20;1.00;;;;;;5031904;28;20610;-69
2021/11/10 07:19:54;;;;;;;10.90;6.03;;;4.30;1.00;;;;;;5030742;28;20229;-68
2021/11/10 07:22:21;;;;;;;11.63;5.60;;;4.60;1.00;;;;;;5031676;28;20296;-68
2021/11/10 07:24:47;;;;;;;10.30;5.40;;;4.80;1.00;;;;;;5030871;28;20690;-69
2021/11/10 07:27:14;;;;;;;10.70;5.10;;;5.10;1.00;;;;;;5031536;28;20232;-67
2021/11/10 07:29:43;;;;;;;8.47;4.00;;;5.30;1.00;;;;;;5031392;28;20299;-68
2021/11/10 07:32:10;;;;;;;10.53;5.10;;;5.40;1.00;;;;;;5031528;28;20238;-64
2021/11/10 07:34:36;;;;;;;9.87;4.30;;;5.50;1.00;;;;;;5031105;28;20284;-62
2021/11/10 07:37:04;;;;;;;11.40;5.70;;;5.40;1.00;;;;;;5031364;28;20210;-62
2021/11/10 07:39:32;;;;;;;13.17;4.83;;;5.30;1.00;;;;;;5031140;28;20206;-60
2021/11/10 07:41:59;;;;;;;9.57;6.20;;;5.10;1.00;;;;;;5031722;28;20203;-62
2021/11/10 07:44:25;;;;;;;12.30;6.10;;;4.90;1.00;;;;;;5031155;28;20259;-61
2021/11/10 07:46:55;;;;;;;9.40;6.07;;;4.80;1.00;;;;;;5031119;28;20238;-62
2021/11/10 07:49:23;;;;;;;10.73;5.73;;;4.70;1.00;;;;;;5031004;28;20580;-59
2021/11/10 07:51:50;;;;;;;9.97;5.93;;;4.50;1.00;;;;;;5030862;28;20212;-62
2021/11/10 07:54:17;;;;;;;14.13;6.40;;;4.40;1.00;;;;;;5031194;28;20637;-63
2021/11/10 07:56:44;;;;;;;12.50;6.27;;;4.20;1.00;;;;;;5030859;28;20217;-63
2021/11/10 07:59:11;;;;;;;12.87;6.17;;;4.10;1.00;;;;;;5031036;28;20211;-63
2021/11/10 08:01:37;;;;;;;10.63;6.83;;;4.10;1.00;;;;;;5031292;28;20507;-63
2021/11/10 08:04:05;;;;;;;12.20;7.13;;;4.10;1.00;;;;;;5031216;28;20305;-62
2021/11/10 08:06:32;;;;;;;9.97;6.20;;;4.20;1.00;;;;;;5030395;28;20480;-61
2021/11/10 08:08:59;;;;;;;11.27;6.53;;;4.20;1.00;;;;;;5030631;28;20213;-61
2021/11/10 08:11:26;;;;;;;9.30;6.23;;;4.30;1.00;;;;;;5031251;28;20274;-60
2021/11/10 08:13:53;;;;;;;12.70;6.43;;;4.40;1.00;;;;;;5132229;23;20303;-61
2021/11/10 08:16:19;;;;;;;10.13;6.07;;;4.40;1.00;;;;;;5050543;28;20206;-61
2021/11/10 08:18:46;;;;;;;8.90;5.80;;;4.40;1.00;;;;;;5050832;28;20220;-62
2021/11/10 08:21:15;;;;;;;8.93;6.33;;;4.50;1.00;;;;;;5050948;28;20218;-61
2021/11/10 08:23:41;;;;;;;10.23;5.93;;;4.60;1.00;;;;;;5050518;28;20226;-62
2021/11/10 08:26:08;;;;;;;11.77;5.80;;;4.70;1.00;;;;;;5050433;28;20213;-63
2021/11/10 08:28:35;;;;;;;11.30;6.10;;;4.80;1.00;;;;;;5050811;28;20209;-65
2021/11/10 08:31:01;;;;;;;11.80;6.03;;;4.80;1.00;;;;;;5052067;28;20750;-63
2021/11/10 08:33:29;;;;;;;9.63;5.37;;;5.00;1.00;;;;;;5054274;28;20285;-65
2021/11/10 08:35:57;;;;;;;10.57;5.77;;;5.10;1.00;;;;;;5053854;28;20211;-65
2021/11/10 08:38:25;;;;;;;15.07;6.10;;;5.30;1.00;;;;;;5053695;28;20206;-64
2021/11/10 08:40:52;;;;;;;9.30;5.60;;;5.50;1.00;;;;;;5054169;28;20212;-64
2021/11/10 08:43:20;;;;;;;11.70;6.03;;;5.70;1.00;;;;;;5054042;28;20716;-63
2021/11/10 08:45:48;;;;;;;9.60;5.70;;;5.80;1.00;;;;;;5054011;28;20674;-62
2021/11/10 08:48:15;;;;;;;10.37;5.97;;;6.00;1.00;;;;;;5054283;28;20212;-62
2021/11/10 08:50:44;;;;;;;12.40;5.63;;;6.10;1.00;;;;;;5053828;28;20239;-61
2021/11/10 08:53:12;;;;;;;11.70;6.60;;;6.20;1.00;;;;;;5053875;28;20698;-62
2021/11/10 08:55:40;;;;;;;9.03;5.93;;;6.30;1.00;;;;;;5053412;28;20212;-61
2021/11/10 08:58:06;;;;;;;10.27;6.67;;;6.30;1.00;;;;;;5053719;28;20693;-59
2021/11/10 09:00:35;;;;;;;9.37;5.83;;;6.40;1.00;;;;;;5053370;28;20704;-56
2021/11/10 09:03:01;;;;;;;11.27;5.43;;;6.50;1.00;;;;;;5053443;28;20226;-54
2021/11/10 09:05:28;;;;;;;12.70;6.03;;;6.50;1.00;;;;;;5053265;28;20825;-59
2021/11/10 09:07:55;;;;;;;12.23;6.23;;;6.50;1.00;;;;;;5054127;28;20219;-57
2021/11/10 09:10:23;;;;;;;12.03;6.37;;;6.60;1.00;;;;;;5053307;28;20208;-60
2021/11/10 09:12:51;;;;;;;9.43;5.80;;;6.70;1.00;;;;;;5053491;28;20229;-60
2021/11/10 09:15:19;;;;;;;10.70;5.87;;;6.80;1.00;;;;;;5052988;28;20304;-59
2021/11/10 09:17:47;;;;;;;12.53;6.20;;;6.90;1.00;;;;;;5053161;28;20217;-60
2021/11/10 09:20:18;;;;;;;10.67;7.00;;;7.00;1.00;;;;;;5052278;28;20674;-63
2021/11/10 09:22:45;;;;;;;11.60;7.10;;;7.10;1.00;;;;;;5033254;28;20206;-61
2021/11/10 09:25:15;;;;;;;9.70;6.47;;;7.30;1.00;;;;;;5033060;28;20206;-61
2021/11/10 09:27:43;;;;;;;13.83;6.70;;;7.50;1.00;;;;;;5033717;28;20206;-61
2021/11/10 09:30:15;;;;;;;12.17;6.60;;;7.70;1.00;;;;;;5032609;28;20211;-63
2021/11/10 09:32:41;;;;;;;11.53;6.87;;;7.90;1.00;;;;;;5033384;28;20229;-63
2021/11/10 09:35:10;;;;;;;10.20;5.67;;;8.10;1.00;;;;;;5035706;28;20203;-64
2021/11/10 09:37:38;;;;;;;9.17;5.83;;;8.30;1.00;;;;;;5053038;28;20628;-62
2021/11/10 09:40:08;;;;;;;9.17;6.00;;;8.40;1.00;;;;;;5053041;28;20562;-62
2021/11/10 09:42:36;;;;;;;10.03;6.07;;;8.50;1.00;;;;;;5052671;28;20731;-62
2021/11/10 09:45:03;;;;;;;11.57;5.70;;;8.70;1.00;;;;;;5052880;28;20302;-61
2021/11/10 09:47:32;;;;;;;11.37;5.97;;;8.70;1.00;;;;;;5053032;28;20213;-60
2021/11/10 09:49:59;;;;;;;13.10;7.17;;;8.70;1.00;;;;;;5052738;28;20240;-58
2021/11/10 09:52:26;;;;;;;9.73;5.87;;;8.80;1.00;;;;;;5052705;28;20676;-59
2021/11/10 09:54:52;;;;;;;11.83;6.70;;;8.80;1.00;;;;;;5052677;28;20641;-60
2021/11/10 09:57:19;;;;;;;8.40;5.40;;;8.90;1.00;;;;;;5052535;28;20210;-61
2021/11/10 09:59:46;;;;;;;12.37;5.93;;;9.00;1.00;;;;;;5052500;28;20212;-60
2021/11/10 10:02:14;;;;;;;9.30;5.87;;;9.10;1.00;;;;;;5052631;28;20277;-57
2021/11/10 10:04:43;;;;;;;11.80;6.53;;;9.30;1.00;;;;;;5052185;28;20225;-59
2021/11/10 10:07:11;;;;;;;9.80;5.93;;;9.50;1.00;;;;;;5052474;28;20209;-59
2021/11/10 10:09:38;;;;;;;9.23;6.23;;;9.60;1.00;;;;;;5052363;28;20213;-62
2021/11/10 10:12:06;;;;;;;12.27;6.27;;;9.70;1.00;;;;;;5052726;28;20211;-61
2021/11/10 10:14:34;;;;;;;9.50;5.90;;;9.70;1.00;;;;;;5051865;28;20239;-59
2021/11/10 10:17:03;;;;;;;10.23;5.70;;;9.90;1.00;;;;;;5052266;28;20213;-62
2021/11/10 10:19:39;;;;;;;11.93;6.17;;;10.10;1.00;;;;;;5051928;28;20248;-63
2021/11/10 10:22:08;;;;;;;12.63;6.90;;;10.20;1.00;;;;;;5051554;28;20292;-63
2021/11/10 10:24:50;;;;;;;9.97;6.03;;;10.20;99.90;;;;;;5051745;28;20563;-65
2021/11/10 10:27:25;;;;;;;12.97;5.70;;;10.30;1.00;;;;;;5049998;28;20202;-63
2021/11/10 10:30:23;;;;;;;12.77;5.90;;;10.40;99.90;;;;;;5051827;28;20212;-63
2021/11/10 10:32:54;;;;;;;10.00;6.00;;;10.50;99.90;;;;;;5051642;28;20312;-64
2021/11/10 10:35:37;;;;;;;12.63;6.20;;;10.40;99.90;;;;;;5052000;28;20296;-64
2021/11/10 10:38:07;;;;;;;9.53;5.97;;;10.40;99.90;;;;;;5052091;28;20284;-65
2021/11/10 10:40:36;;;;;;;9.90;5.80;;;10.40;99.90;;;;;;5051444;28;20201;-65
2021/11/10 10:43:04;;;;;;;11.53;5.27;;;10.30;99.90;;;;;;5051686;28;20745;-62
2021/11/10 10:45:38;;;;;;;12.77;5.23;;;10.40;99.90;;;;;;5051334;28;20209;-62
2021/11/10 10:48:07;;;;;;;9.93;5.47;;;10.40;99.90;;;;;;5052032;28;20619;-61
2021/11/10 10:50:42;;;;;;;12.40;5.53;;;10.40;99.90;;;;;;5051341;28;20216;-64
2021/11/10 10:53:14;;;;;;;8.37;5.53;;;10.50;99.90;;;;;;5050778;28;20279;-64
2021/11/10 10:55:42;;;;;;;8.70;5.30;;;10.40;99.90;;;;;;5050323;28;20213;-65
2021/11/10 10:58:11;;;;;;;9.40;5.17;;;10.50;99.90;;;;;;5051827;28;20214;-65
2021/11/10 11:00:39;;;;;;;11.47;6.03;;;10.40;99.90;;;;;;5051277;28;20206;-64
2021/11/10 11:03:26;;;;;;;7.47;5.23;;;10.30;99.90;;;;;;5051327;28;20232;-63
2021/11/10 11:05:54;;;;;;;11.23;5.90;;;10.20;99.90;;;;;;5051179;28;20597;-63
2021/11/10 11:08:39;;;;;;;10.30;5.80;;;10.10;99.90;;;;;;5051096;28;20596;-63
2021/11/10 11:11:32;;;;;;;9.90;4.93;;;10.10;99.90;;;;;;5050923;28;20296;-63
2021/11/10 11:13:59;;;;;;;7.43;5.17;;;10.10;99.90;;;;;;5051204;28;20236;-63
2021/11/10 11:16:36;;;;;;;9.73;5.30;;;10.10;99.90;;;;;;5050517;28;20205;-62
2021/11/10 11:19:13;;;;;;;8.33;5.03;;;10.20;99.90;;;;;;5051149;28;20647;-63
2021/11/10 11:21:52;;;;;;;12.70;6.23;;;10.30;99.90;;;;;;5050722;28;20742;-61
2021/11/10 11:24:41;;;;;;;8.10;5.70;;;10.30;99.90;;;;;;5051269;28;20229;-62
2021/11/10 11:27:20;;;;;;;10.53;5.67;;;10.30;99.90;;;;;;5051265;28;20213;-62
2021/11/10 11:29:53;;;;;;;11.90;5.93;;;10.30;99.90;;;;;;5050779;28;20205;-65
2021/11/10 11:32:22;;;;;;;14.77;6.43;;;10.30;99.90;;;;;;5051646;28;20194;-65
2021/11/10 11:34:51;;;;;;;11.57;5.83;;;10.40;99.90;;;;;;5050858;28;20233;-64
2021/11/10 11:37:18;;;;;;;15.63;6.30;;;10.30;99.90;;;;;;5050548;28;20567;-65
2021/11/10 11:39:47;;;;;;;9.67;5.87;;;10.30;1.00;;;;;;5050719;28;20213;-64
2021/11/10 11:42:14;;;;;;;13.73;6.63;;;10.30;99.90;;;;;;5051354;28;20206;-65
2021/11/10 11:44:41;;;;;;;10.80;6.10;;;10.30;99.90;;;;;;5050627;28;20279;-62
2021/11/10 11:47:08;;;;;;;14.43;6.13;;;10.40;99.90;;;;;;5051009;28;20210;-61
2021/11/10 11:49:39;;;;;;;9.63;6.33;;;10.40;99.90;;;;;;5050282;28;20296;-61
2021/11/10 11:52:09;;;;;;;10.97;5.70;;;10.30;99.90;;;;;;5051350;28;20607;-61
2021/11/10 11:54:37;;;;;;;8.60;6.27;;;10.40;99.90;;;;;;5050729;28;20925;-61
2021/11/10 11:57:06;;;;;;;10.60;5.83;;;10.40;99.90;;;;;;5050903;28;20206;-62
2021/11/10 11:59:34;;;;;;;10.53;5.63;;;10.40;99.90;;;;;;5050436;28;20209;-62
2021/11/10 12:02:02;;;;;;;9.47;5.97;;;10.50;99.90;;;;;;5050941;28;20263;-63
2021/11/10 12:04:31;;;;;;;11.53;5.90;;;10.60;99.90;;;;;;5038306;28;20225;-64
2021/11/10 12:06:58;;;;;;;12.43;6.73;;;10.70;99.90;;;;;;5054479;28;20722;-63
2021/11/10 12:09:31;;;;;;;9.33;6.20;;;10.60;99.90;;;;;;5054923;28;20205;-63
2021/11/10 12:11:59;;;;;;;10.83;6.20;;;10.70;99.90;;;;;;5054801;28;20211;-63
2021/11/10 12:14:33;;;;;;;13.50;6.37;;;10.80;99.90;;;;;;5054071;28;20694;-63
2021/11/10 12:17:03;;;;;;;13.40;6.17;;;10.80;99.90;;;;;;5054313;28;20232;-64
2021/11/10 12:19:34;;;;;;;11.43;5.80;;;10.70;99.90;;;;;;5054366;28;20209;-63
2021/11/10 12:22:04;;;;;;;11.27;5.77;;;10.70;99.90;;;;;;5054527;28;20237;-63
2021/11/10 12:24:42;;;;;;;11.03;5.60;;;10.70;99.90;;;;;;5054165;28;20225;-63
2021/11/10 12:27:25;;;;;;;11.00;6.17;;;10.60;99.90;;;;;;5054406;28;20795;-63
2021/11/10 12:29:58;;;;;;;13.43;5.80;;;10.60;99.90;;;;;;5054689;28;20243;-62
2021/11/10 12:32:44;;;;;;;13.03;6.27;;;10.60;99.90;;;;;;5054036;28;20213;-61
2021/11/10 12:35:21;;;;;;;14.00;6.00;;;10.60;99.90;;;;;;5053552;28;20225;-62
2021/11/10 12:37:50;;;;;;;9.80;5.80;;;10.80;99.90;;;;;;5053974;28;20634;-61
2021/11/10 12:40:20;;;;;;;10.03;6.13;;;10.80;99.90;;;;;;5054193;28;20220;-62
2021/11/10 12:42:49;;;;;;;13.20;6.10;;;10.90;99.90;;;;;;5054273;28;20209;-60
2021/11/10 12:45:24;;;;;;;11.70;6.00;;;10.90;99.90;;;;;;5053472;28;20304;-61
2021/11/10 12:47:52;;;;;;;13.57;5.60;;;10.90;99.90;;;;;;5053960;28;20205;-63
2021/11/10 12:50:23;;;;;;;9.50;5.90;;;10.90;99.90;;;;;;5053609;28;20205;-61
2021/11/10 12:52:50;;;;;;;13.07;5.50;;;11.00;99.90;;;;;;5054023;28;20260;-60
2021/11/10 12:55:20;;;;;;;9.17;6.17;;;11.10;99.90;;;;;;5053163;28;20641;-57
2021/11/10 12:57:46;;;;;;;13.17;6.13;;;11.20;99.90;;;;;;5053809;28;20202;-60
2021/11/10 13:00:14;;;;;;;10.37;5.33;;;11.20;99.90;;;;;;5053710;28;20210;-59
2021/11/10 13:02:44;;;;;;;13.47;6.37;;;11.20;99.90;;;;;;5053543;28;20205;-60
2021/11/10 13:05:12;;;;;;;9.87;5.80;;;11.30;99.90;;;;;;5053368;28;20574;-62
2021/11/10 13:07:45;;;;;;;12.67;5.77;;;11.20;99.90;;;;;;5053493;28;20240;-62